LiveATC.Net - Listen to live air traffic control over the Internet! Contact LiveATC.net for advertising information

Find LiveATC Audio Streams


Airport/ARTCC Code

Frequency
(e.g., 124.400, 128.75)
Site-wide search

Browse LiveATC Feeds
LiveATC Coverage Map
Top 50 LiveATC Feeds
Bad Weather Areas

LiveATC FAQ
Offer a LiveATC Feed
Contact LiveATC.net
Press Inquiries

LiveATC on iPhone
LiveATC on Android

LiveATC Mobile
(Mobile browser)

ATC Audio Archives
Interesting Recordings

LiveATC Forums

Home Page
About LiveATC.net
Make a Donation
LiveATC Bookstore

Terms of Use
Privacy Policy

ATC/Radar Sites
U.S. ARTCC Freqs
Canadian Air Freqs

AIRMETs/SIGMETs

FAA Airport Status
Nat'l Airspace Status
Arrival Demand Charts


Server Software By:
Icecast.org
Liquidsoap


Current Potentially Bad Weather Airports
(updated every 30 minutes - sorted alphabetically by ICAO code)



This page lists LiveATC.net airport areas that may be interesting to listen to because of challenging flying (weather) conditions. Challenging weather conditions include low ceilings, limited visibility, high or gusty winds, or thunderstorms. This is an evolving new feature and comments are welcome.

Updated: Thu Aug 21 04:10:01 UTC 2014
Click on airport name to go to that airport area's feeds.

CYKZ Ground/Tower
cykzCYKZ 210326Z 12006KT 8SM OVC003 RMK SC8
CYPQ UNICOM/Guard
cypqCYPQ 210300Z AUTO 10004KT 9SM OVC009 20/18 A2994 RMK SLP138 DENSITY ALT 1300FT
CYVO Gnd/RDO/Center
WX MAP UNAVAILABLECYVO 210300Z AUTO 02002KT 17/15 A3002 RMK CLD MISG WX MISG VIS MISG PCPN MISG TS/LTNG TEMPO UNAVBL RVR MISG SLP170 DENSITY ALT 1400FT
KAPA Gnd/Twr/Denver App
kapaKAPA 210353Z 32019G24KT 10SM -RA SCT075 BKN090 OVC120 19/12 A3006 RMK AO2 SLP106 RAB39 OCNL LTGICCG DSNT NW CB DSNT NW MOV NE P0001 T01940117
KASE Del/Gnd/Twr/ZDC
kaseKASE 210353Z AUTO 21007KT 10SM CLR 12/08 A3022 RMK AO2 LTG DSNT N SLP127 T01220078
KATL Approach (Final)
katlKATL 210352Z 29017G22KT 10SM FEW130 BKN200 OVC250 23/19 A3015 RMK AO2 SLP198 OCNL LTG DSNT SW-W T02280194
KBIL Gnd/Twr/App
kbilKBIL 210353Z 29016KT 9SM -RA BKN065 OVC085 16/13 A2992 RMK AO2 RAB46 SLP108 OCNL LTG DSNT NE CB DSNT SW-NE P0000 T01610128
KBJC Ground/Tower #2
kbjcKBJC 210345Z 18013G20KT 15SM -TSRA SCT020 BKN030 OVC100 20/13 A3006 RMK TSB10 LAST
KBVI Ground/Tower
kbviKBVI 210047Z 31003KT 10SM CLR 21/18 A2996 RMK LTG DSNT E LAST
KBVY Ground/Tower
kbvyKBVY 210353Z AUTO 00000KT 1/4SM FG VV001 13/12 A3005 RMK AO2 SLP172 T01280117
KCOS Gnd/Twr/App/Dep
kcosKCOS 210354Z 02008KT 10SM FEW095 BKN120 BKN200 20/11 A3005 RMK AO2 TSE25 SLP080 OCNL LTGICCG DSNT E-SE CB DSNT E-SE T02000111
KDAN CTAF/ZDC
kdanKDAN 210353Z AUTO 00000KT 10SM SCT055 23/22 A3003 RMK AO2 LTG DSNT E RAE06 TSB12E27 SLP158 P0001 T02330217
KDEN Approach
kdenKDEN 210353Z 33006KT 10SM FEW070 BKN090 BKN120 20/12 A3003 RMK AO2 RAB35E51 SLP090 OCNL LTGICCG E AND SE AND W CB DSNT E AND SE AND W P0000 T02000117
KFDK Del/Gnd/Twr/CTAF
kfdkKFDK 210355Z AUTO 00000KT 7SM CLR A3006 RMK AO2 LTG DSNT NW
KGSO Del/Gnd/Twr/App/ZTL
kgsoKGSO 210354Z 26005KT 10SM FEW035 SCT100 SCT250 25/22 A3004 RMK AO2 SLP158 FRQ LTGIC DSNT NE CB DSNT NE T02500217
KGYR Tower
kgyrKGYR 210347Z 28010KT 10SM SCT080 BKN200 30/16 A2985 RMK LTG DSNT W
KLBB Gnd/Twr/App
klbbKLBB 210353Z 16015G24KT 10SM BKN250 25/16 A2999 RMK AO2 PK WND 18031/0311 SLP098 OCNL LTGIC DSNT E CB DSNT E MOV NE T02500161
KOGD Ogden Ground/Tower
kogdKOGD 210353Z AUTO 34008KT 10SM SCT070 SCT080 BKN110 18/12 A3002 RMK AO2 LTG DSNT SE AND S RAE20 SLP119 P0002 T01830117
KPHX Tower
kphxKPHX 210351Z 36005KT 10SM SCT080 BKN200 BKN250 35/12 A2982 RMK AO2 SLP078 FRQ LTGIC DSNT W-NW CB DSNT W-NW T03500122
KRDU Approach/Departure
krduKRDU 210351Z 00000KT 10SM BKN060 BKN250 23/21 A3003 RMK AO2 SLP165 OCNL LTG DSNT N T02280206 $
KSAW Gnd/Twr/ZMP
WX MAP UNAVAILABLEKSAW 210357Z AUTO 00000KT 1/2SM FG OVC001 14/14 A2997 RMK AO2 T01430138
KSLC Tower (All)
kslcKSLC 210358Z 05011KT 10SM FEW075 BKN095 OVC110 19/13 A3003 RMK AO2 WSHFT 0340 LTG DSNT NE-SE TS DSNT NW-NE CB DSNT SE AND W SH VC S-W T01940128
KDMA/KTUS Twr/Ops/ZAB
kdmaKDMA 210258Z AUTO 18008KT 10SM SCT080 28/13 A2994 RMK AO2 LTG DSNT W SLP095 T02840131 51009 $
LDZA Twr/Radar/Ops
WX MAP UNAVAILABLELDZA 210330Z VRB04KT 5000 TSRA FEW003 FEW030CB 17/16 Q1012 NOSIG
LHBP Approach
WX MAP UNAVAILABLELHBP 210330Z 35004KT 6000 -TSRA FEW016 SCT026CB BKN034 16/16 Q1013 TEMPO 5000 SHRA TSRA
LSZG Tower
WX MAP UNAVAILABLELSZG 210350Z AUTO VRB01KT 9999 OVC005 10/10 Q1019
MMTC Torreon, Mexico
WX MAP UNAVAILABLEMMTC 210340Z 24006KT 10SM BKN100 BKN200 24/16 A3004 RMK 8/063 CB SW NW OCNL LTGIC ISOL SC
RKSO/RKSG Gnd/Twr/App
WX MAP UNAVAILABLERKSG 210358Z AUTO M M M 23/ M RMK AO2 RAB0350 SLPNO RVRNO PNO $
SBPA Gnd/Twr/App
WX MAP UNAVAILABLESBPA 210400Z 05003KT 0500 R29/1000 R11/1000 FG VV002 15/15 Q101 9
UIII Irkutsk Control
WX MAP UNAVAILABLEUIII 210330Z 31011G15MPS 4000 -SHRA OVC006CB 14/14 Q1011 TEMPO 32010G15MPS 1700 SHRA RMK QBB200 QFE714/0952 30290150